sensor_id;sensor_type;location;lat;lon;timestamp;pressure;altitude;pressure_sealevel;temperature;humidity
12358;BME280;6243;51.244;6.774;2024-03-08T00:01:48;115150.97;;;-141.28;39.03
12358;BME280;6243;51.244;6.774;2024-03-08T00:04:14;115150.97;;;-141.28;39.41
12358;BME280;6243;51.244;6.774;2024-03-08T00:06:39;115150.97;;;-141.28;38.91
12358;BME280;6243;51.244;6.774;2024-03-08T00:09:05;115150.97;;;-141.28;39.15
12358;BME280;6243;51.244;6.774;2024-03-08T00:11:30;115150.97;;;-141.28;39.67
12358;BME280;6243;51.244;6.774;2024-03-08T00:13:56;115150.97;;;-141.28;40.00
12358;BME280;6243;51.244;6.774;2024-03-08T00:16:21;115150.97;;;-141.28;39.50
12358;BME280;6243;51.244;6.774;2024-03-08T00:18:48;115150.97;;;-141.28;39.01
12358;BME280;6243;51.244;6.774;2024-03-08T00:21:14;115150.97;;;-141.28;38.46
12358;BME280;6243;51.244;6.774;2024-03-08T00:23:39;115150.97;;;-141.28;38.74
12358;BME280;6243;51.244;6.774;2024-03-08T00:26:05;115150.97;;;-141.28;38.35
12358;BME280;6243;51.244;6.774;2024-03-08T00:28:30;115150.97;;;-141.28;38.25
12358;BME280;6243;51.244;6.774;2024-03-08T00:30:55;115150.97;;;-141.28;38.31
12358;BME280;6243;51.244;6.774;2024-03-08T00:33:21;115150.97;;;-141.28;38.48
12358;BME280;6243;51.244;6.774;2024-03-08T00:35:48;115150.97;;;-141.28;38.49
12358;BME280;6243;51.244;6.774;2024-03-08T00:38:13;115150.97;;;-141.28;38.36
12358;BME280;6243;51.244;6.774;2024-03-08T00:40:39;115150.97;;;-141.28;38.33
12358;BME280;6243;51.244;6.774;2024-03-08T00:43:04;115150.97;;;-141.28;38.40
12358;BME280;6243;51.244;6.774;2024-03-08T00:45:30;115150.97;;;-141.28;39.34
12358;BME280;6243;51.244;6.774;2024-03-08T00:47:55;115150.97;;;-141.28;38.56
12358;BME280;6243;51.244;6.774;2024-03-08T00:50:21;115150.97;;;-141.28;38.65
12358;BME280;6243;51.244;6.774;2024-03-08T00:52:48;115150.97;;;-141.28;39.00
12358;BME280;6243;51.244;6.774;2024-03-08T00:55:13;115150.97;;;-141.28;38.56
12358;BME280;6243;51.244;6.774;2024-03-08T00:57:39;115150.97;;;-141.28;38.45
12358;BME280;6243;51.244;6.774;2024-03-08T01:00:05;115150.97;;;-141.28;38.62
12358;BME280;6243;51.244;6.774;2024-03-08T01:02:31;115150.97;;;-141.28;38.48
12358;BME280;6243;51.244;6.774;2024-03-08T01:04:57;115150.97;;;-141.28;38.66
12358;BME280;6243;51.244;6.774;2024-03-08T01:07:22;115150.97;;;-141.28;38.33
12358;BME280;6243;51.244;6.774;2024-03-08T01:09:49;115150.97;;;-141.28;38.85
12358;BME280;6243;51.244;6.774;2024-03-08T01:12:14;115150.97;;;-141.28;38.42
12358;BME280;6243;51.244;6.774;2024-03-08T01:14:40;115150.97;;;-141.28;39.24
12358;BME280;6243;51.244;6.774;2024-03-08T01:17:06;115150.97;;;-141.28;39.22
12358;BME280;6243;51.244;6.774;2024-03-08T01:19:31;115150.97;;;-141.28;38.76
12358;BME280;6243;51.244;6.774;2024-03-08T01:21:57;115150.97;;;-141.28;38.77
12358;BME280;6243;51.244;6.774;2024-03-08T01:24:22;115150.97;;;-141.28;38.51
12358;BME280;6243;51.244;6.774;2024-03-08T01:26:49;115150.97;;;-141.28;38.36
12358;BME280;6243;51.244;6.774;2024-03-08T01:29:15;115150.97;;;-141.28;38.30
12358;BME280;6243;51.244;6.774;2024-03-08T01:31:40;115150.97;;;-141.28;38.61
12358;BME280;6243;51.244;6.774;2024-03-08T01:34:06;115150.97;;;-141.28;38.52
12358;BME280;6243;51.244;6.774;2024-03-08T01:36:31;115150.97;;;-141.28;37.99
12358;BME280;6243;51.244;6.774;2024-03-08T01:38:57;115150.97;;;-141.28;38.25
12358;BME280;6243;51.244;6.774;2024-03-08T01:41:22;115150.97;;;-141.28;37.95
12358;BME280;6243;51.244;6.774;2024-03-08T01:43:49;115150.97;;;-141.28;38.19
12358;BME280;6243;51.244;6.774;2024-03-08T01:46:18;115150.97;;;-141.28;38.21
12358;BME280;6243;51.244;6.774;2024-03-08T01:48:44;115150.97;;;-141.28;38.84
12358;BME280;6243;51.244;6.774;2024-03-08T01:51:10;115150.97;;;-141.28;38.70
12358;BME280;6243;51.244;6.774;2024-03-08T01:53:36;115150.97;;;-141.28;38.58
12358;BME280;6243;51.244;6.774;2024-03-08T01:56:02;115150.97;;;-141.28;39.27
12358;BME280;6243;51.244;6.774;2024-03-08T01:58:28;115150.97;;;-141.28;40.92
12358;BME280;6243;51.244;6.774;2024-03-08T02:00:56;115150.97;;;-141.28;39.90
12358;BME280;6243;51.244;6.774;2024-03-08T02:03:22;115150.97;;;-141.28;39.64
12358;BME280;6243;51.244;6.774;2024-03-08T02:05:48;115150.97;;;-141.28;39.93
12358;BME280;6243;51.244;6.774;2024-03-08T02:08:14;115150.97;;;-141.28;39.27
12358;BME280;6243;51.244;6.774;2024-03-08T02:10:40;115150.97;;;-141.28;39.60
12358;BME280;6243;51.244;6.774;2024-03-08T02:13:06;115150.97;;;-141.28;39.07
12358;BME280;6243;51.244;6.774;2024-03-08T02:15:52;115150.97;;;-141.28;39.44
12358;BME280;6243;51.244;6.774;2024-03-08T02:18:20;115150.97;;;-141.28;39.66
12358;BME280;6243;51.244;6.774;2024-03-08T02:20:47;115150.97;;;-141.28;38.93
12358;BME280;6243;51.244;6.774;2024-03-08T02:23:13;115150.97;;;-141.28;38.86
12358;BME280;6243;51.244;6.774;2024-03-08T02:25:39;115150.97;;;-141.28;39.50
12358;BME280;6243;51.244;6.774;2024-03-08T02:28:05;115150.97;;;-141.28;39.57
12358;BME280;6243;51.244;6.774;2024-03-08T02:30:31;115150.97;;;-141.28;39.04
12358;BME280;6243;51.244;6.774;2024-03-08T02:32:56;115150.97;;;-141.28;38.70
12358;BME280;6243;51.244;6.774;2024-03-08T02:35:22;115150.97;;;-141.28;38.58
12358;BME280;6243;51.244;6.774;2024-03-08T02:37:48;115150.97;;;-141.28;38.43
12358;BME280;6243;51.244;6.774;2024-03-08T02:40:14;115150.97;;;-141.28;38.49
12358;BME280;6243;51.244;6.774;2024-03-08T02:42:40;115150.97;;;-141.28;38.46
12358;BME280;6243;51.244;6.774;2024-03-08T02:45:06;115150.97;;;-141.28;38.51
12358;BME280;6243;51.244;6.774;2024-03-08T02:47:32;115150.97;;;-141.28;38.63
12358;BME280;6243;51.244;6.774;2024-03-08T02:49:57;115150.97;;;-141.28;38.80
12358;BME280;6243;51.244;6.774;2024-03-08T02:52:23;115150.97;;;-141.28;38.36
12358;BME280;6243;51.244;6.774;2024-03-08T02:54:50;115150.97;;;-141.28;38.71
12358;BME280;6243;51.244;6.774;2024-03-08T02:57:15;115150.97;;;-141.28;38.51
12358;BME280;6243;51.244;6.774;2024-03-08T02:59:40;115150.97;;;-141.28;38.63
12358;BME280;6243;51.244;6.774;2024-03-08T03:02:06;115150.97;;;-141.28;38.48
12358;BME280;6243;51.244;6.774;2024-03-08T03:04:32;115150.97;;;-141.28;38.53
12358;BME280;6243;51.244;6.774;2024-03-08T03:06:57;115150.97;;;-141.28;38.64
12358;BME280;6243;51.244;6.774;2024-03-08T03:09:23;115150.97;;;-141.28;38.87
12358;BME280;6243;51.244;6.774;2024-03-08T03:11:50;115150.97;;;-141.28;38.75
12358;BME280;6243;51.244;6.774;2024-03-08T03:14:15;115150.97;;;-141.28;39.06
12358;BME280;6243;51.244;6.774;2024-03-08T03:16:40;115150.97;;;-141.28;38.77
12358;BME280;6243;51.244;6.774;2024-03-08T03:19:06;115150.97;;;-141.28;39.14
12358;BME280;6243;51.244;6.774;2024-03-08T03:21:32;115150.97;;;-141.28;38.96
12358;BME280;6243;51.244;6.774;2024-03-08T03:23:57;115150.97;;;-141.28;39.41
12358;BME280;6243;51.244;6.774;2024-03-08T03:26:23;115150.97;;;-141.28;39.27
12358;BME280;6243;51.244;6.774;2024-03-08T03:28:50;115150.97;;;-141.28;39.57
12358;BME280;6243;51.244;6.774;2024-03-08T03:31:15;115150.97;;;-141.28;39.33
12358;BME280;6243;51.244;6.774;2024-03-08T03:33:41;115150.97;;;-141.28;39.53
12358;BME280;6243;51.244;6.774;2024-03-08T03:36:06;115150.97;;;-141.28;39.64
12358;BME280;6243;51.244;6.774;2024-03-08T03:38:32;115150.97;;;-141.28;39.57
12358;BME280;6243;51.244;6.774;2024-03-08T03:40:57;115150.97;;;-141.28;39.92
12358;BME280;6243;51.244;6.774;2024-03-08T03:43:23;115150.97;;;-141.28;39.86
12358;BME280;6243;51.244;6.774;2024-03-08T03:45:50;115150.97;;;-141.28;39.74
12358;BME280;6243;51.244;6.774;2024-03-08T03:48:15;115150.97;;;-141.28;40.25
12358;BME280;6243;51.244;6.774;2024-03-08T03:50:41;115150.97;;;-141.28;40.35
12358;BME280;6243;51.244;6.774;2024-03-08T03:53:07;115150.97;;;-141.28;40.18
12358;BME280;6243;51.244;6.774;2024-03-08T03:55:32;115150.97;;;-141.28;40.32
12358;BME280;6243;51.244;6.774;2024-03-08T03:57:58;115150.97;;;-141.28;40.32
12358;BME280;6243;51.244;6.774;2024-03-08T04:00:24;115150.97;;;-141.28;39.97
12358;BME280;6243;51.244;6.774;2024-03-08T04:02:50;115150.97;;;-141.28;40.00
12358;BME280;6243;51.244;6.774;2024-03-08T04:05:16;115150.97;;;-141.28;39.95
12358;BME280;6243;51.244;6.774;2024-03-08T04:07:41;115150.97;;;-141.28;40.21
12358;BME280;6243;51.244;6.774;2024-03-08T04:10:09;115150.97;;;-141.28;39.93
12358;BME280;6243;51.244;6.774;2024-03-08T04:12:34;115150.97;;;-141.28;40.13
12358;BME280;6243;51.244;6.774;2024-03-08T04:15:00;115150.97;;;-141.28;39.98
12358;BME280;6243;51.244;6.774;2024-03-08T04:17:26;115150.97;;;-141.28;40.42
12358;BME280;6243;51.244;6.774;2024-03-08T04:19:53;115150.97;;;-141.28;40.33
12358;BME280;6243;51.244;6.774;2024-03-08T04:22:18;115150.97;;;-141.28;40.23
12358;BME280;6243;51.244;6.774;2024-03-08T04:24:44;115150.97;;;-141.28;40.38
12358;BME280;6243;51.244;6.774;2024-03-08T04:27:10;115150.97;;;-141.28;40.14
12358;BME280;6243;51.244;6.774;2024-03-08T04:29:36;115150.97;;;-141.28;40.33
12358;BME280;6243;51.244;6.774;2024-03-08T04:32:02;115150.97;;;-141.28;40.17
12358;BME280;6243;51.244;6.774;2024-03-08T04:34:28;115150.97;;;-141.28;40.09
12358;BME280;6243;51.244;6.774;2024-03-08T04:36:56;115150.97;;;-141.28;40.27
12358;BME280;6243;51.244;6.774;2024-03-08T04:39:22;115150.97;;;-141.28;40.08
12358;BME280;6243;51.244;6.774;2024-03-08T04:41:47;115150.97;;;-141.28;40.38
12358;BME280;6243;51.244;6.774;2024-03-08T04:44:14;115150.97;;;-141.28;40.54
12358;BME280;6243;51.244;6.774;2024-03-08T04:46:39;115150.97;;;-141.28;40.36
12358;BME280;6243;51.244;6.774;2024-03-08T04:49:05;115150.97;;;-141.28;40.63
12358;BME280;6243;51.244;6.774;2024-03-08T04:51:30;115150.97;;;-141.28;40.69
12358;BME280;6243;51.244;6.774;2024-03-08T04:53:57;115150.97;;;-141.28;40.71
12358;BME280;6243;51.244;6.774;2024-03-08T04:56:23;115150.97;;;-141.28;41.06
12358;BME280;6243;51.244;6.774;2024-03-08T04:58:48;115150.97;;;-141.28;40.96
12358;BME280;6243;51.244;6.774;2024-03-08T05:01:14;115150.97;;;-141.28;40.76
12358;BME280;6243;51.244;6.774;2024-03-08T05:03:39;115150.97;;;-141.28;40.63
12358;BME280;6243;51.244;6.774;2024-03-08T05:06:05;115150.97;;;-141.28;41.04
12358;BME280;6243;51.244;6.774;2024-03-08T05:08:30;115150.97;;;-141.28;41.03
12358;BME280;6243;51.244;6.774;2024-03-08T05:10:57;115150.97;;;-141.28;41.12
12358;BME280;6243;51.244;6.774;2024-03-08T05:13:23;115150.97;;;-141.28;41.09
12358;BME280;6243;51.244;6.774;2024-03-08T05:15:48;115150.97;;;-141.28;41.32
12358;BME280;6243;51.244;6.774;2024-03-08T05:18:14;115150.97;;;-141.28;41.11
12358;BME280;6243;51.244;6.774;2024-03-08T05:20:39;115150.97;;;-141.28;41.07
12358;BME280;6243;51.244;6.774;2024-03-08T05:23:05;115150.97;;;-141.28;41.22
12358;BME280;6243;51.244;6.774;2024-03-08T05:25:30;115150.97;;;-141.28;40.92
12358;BME280;6243;51.244;6.774;2024-03-08T05:27:57;115150.97;;;-141.28;41.01
12358;BME280;6243;51.244;6.774;2024-03-08T05:30:23;115150.97;;;-141.28;41.05
12358;BME280;6243;51.244;6.774;2024-03-08T05:32:48;115150.97;;;-141.28;40.82
12358;BME280;6243;51.244;6.774;2024-03-08T05:35:14;115150.97;;;-141.28;41.08
12358;BME280;6243;51.244;6.774;2024-03-08T05:37:39;115150.97;;;-141.28;41.17
12358;BME280;6243;51.244;6.774;2024-03-08T05:40:06;115150.97;;;-141.28;41.27
12358;BME280;6243;51.244;6.774;2024-03-08T05:42:31;115150.97;;;-141.28;41.49
12358;BME280;6243;51.244;6.774;2024-03-08T05:44:58;115150.97;;;-141.28;41.10
12358;BME280;6243;51.244;6.774;2024-03-08T05:47:24;115150.97;;;-141.28;41.32
12358;BME280;6243;51.244;6.774;2024-03-08T05:49:49;115150.97;;;-141.28;41.50
12358;BME280;6243;51.244;6.774;2024-03-08T05:52:15;115150.97;;;-141.28;41.29
12358;BME280;6243;51.244;6.774;2024-03-08T05:54:40;115150.97;;;-141.28;41.41
12358;BME280;6243;51.244;6.774;2024-03-08T05:57:06;115150.97;;;-141.28;41.10
12358;BME280;6243;51.244;6.774;2024-03-08T05:59:31;115150.97;;;-141.28;41.22
12358;BME280;6243;51.244;6.774;2024-03-08T06:01:58;115150.97;;;-141.28;41.17
12358;BME280;6243;51.244;6.774;2024-03-08T06:04:24;115150.97;;;-141.28;41.28
12358;BME280;6243;51.244;6.774;2024-03-08T06:06:49;115150.97;;;-141.28;41.28
12358;BME280;6243;51.244;6.774;2024-03-08T06:09:15;115150.97;;;-141.28;41.50
12358;BME280;6243;51.244;6.774;2024-03-08T06:11:40;115150.97;;;-141.28;41.50
12358;BME280;6243;51.244;6.774;2024-03-08T06:14:06;115150.97;;;-141.28;41.51
12358;BME280;6243;51.244;6.774;2024-03-08T06:16:31;115150.97;;;-141.28;41.32
12358;BME280;6243;51.244;6.774;2024-03-08T06:18:58;115150.97;;;-141.28;41.59
12358;BME280;6243;51.244;6.774;2024-03-08T06:21:24;115150.97;;;-141.28;41.68
12358;BME280;6243;51.244;6.774;2024-03-08T06:23:49;115150.97;;;-141.28;41.69
12358;BME280;6243;51.244;6.774;2024-03-08T06:26:15;115150.97;;;-141.28;41.48
12358;BME280;6243;51.244;6.774;2024-03-08T06:28:40;115150.97;;;-141.28;41.66
12358;BME280;6243;51.244;6.774;2024-03-08T06:31:06;115150.97;;;-141.28;41.67
12358;BME280;6243;51.244;6.774;2024-03-08T06:33:31;115150.97;;;-141.28;41.91
12358;BME280;6243;51.244;6.774;2024-03-08T06:35:58;115150.97;;;-141.28;41.74
12358;BME280;6243;51.244;6.774;2024-03-08T06:38:24;115150.97;;;-141.28;41.50
12358;BME280;6243;51.244;6.774;2024-03-08T06:40:49;115150.97;;;-141.28;41.98
12358;BME280;6243;51.244;6.774;2024-03-08T06:43:15;115150.97;;;-141.28;41.90
12358;BME280;6243;51.244;6.774;2024-03-08T06:45:41;115150.97;;;-141.28;42.10
12358;BME280;6243;51.244;6.774;2024-03-08T06:48:07;115150.97;;;-141.28;42.19
12358;BME280;6243;51.244;6.774;2024-03-08T06:50:32;115150.97;;;-141.28;42.28
12358;BME280;6243;51.244;6.774;2024-03-08T06:52:59;115150.97;;;-141.28;42.18
12358;BME280;6243;51.244;6.774;2024-03-08T06:55:25;115150.97;;;-141.28;42.49
12358;BME280;6243;51.244;6.774;2024-03-08T06:57:50;115150.97;;;-141.28;42.86
12358;BME280;6243;51.244;6.774;2024-03-08T07:00:16;115150.97;;;-141.28;42.74
12358;BME280;6243;51.244;6.774;2024-03-08T07:02:42;115150.97;;;-141.28;42.59
12358;BME280;6243;51.244;6.774;2024-03-08T07:05:08;115150.97;;;-141.28;42.57
12358;BME280;6243;51.244;6.774;2024-03-08T07:07:33;115150.97;;;-141.28;42.25
12358;BME280;6243;51.244;6.774;2024-03-08T07:10:00;115150.97;;;-141.28;43.21
12358;BME280;6243;51.244;6.774;2024-03-08T07:12:25;115150.97;;;-141.28;42.96
12358;BME280;6243;51.244;6.774;2024-03-08T07:14:51;115150.97;;;-141.28;42.52
12358;BME280;6243;51.244;6.774;2024-03-08T07:17:17;115150.97;;;-141.28;43.09
12358;BME280;6243;51.244;6.774;2024-03-08T07:19:42;115150.97;;;-141.28;42.71
12358;BME280;6243;51.244;6.774;2024-03-08T07:22:08;115150.97;;;-141.28;42.06
12358;BME280;6243;51.244;6.774;2024-03-08T07:24:33;115150.97;;;-141.28;42.25
12358;BME280;6243;51.244;6.774;2024-03-08T07:27:00;115150.97;;;-141.28;41.93
12358;BME280;6243;51.244;6.774;2024-03-08T07:29:26;115150.97;;;-141.28;42.10
12358;BME280;6243;51.244;6.774;2024-03-08T07:31:51;115150.97;;;-141.28;41.88
12358;BME280;6243;51.244;6.774;2024-03-08T07:34:17;115150.97;;;-141.28;41.50
12358;BME280;6243;51.244;6.774;2024-03-08T07:36:43;115150.97;;;-141.28;42.97
12358;BME280;6243;51.244;6.774;2024-03-08T07:39:08;115150.97;;;-141.28;42.41
12358;BME280;6243;51.244;6.774;2024-03-08T07:41:34;115150.97;;;-141.28;41.92
12358;BME280;6243;51.244;6.774;2024-03-08T07:44:01;115150.97;;;-141.28;41.40
12358;BME280;6243;51.244;6.774;2024-03-08T07:46:26;115150.97;;;-141.28;41.79
12358;BME280;6243;51.244;6.774;2024-03-08T07:48:52;115150.97;;;-141.28;40.82
12358;BME280;6243;51.244;6.774;2024-03-08T07:51:17;115150.97;;;-141.28;41.72
12358;BME280;6243;51.244;6.774;2024-03-08T07:53:43;115150.97;;;-141.28;41.48
12358;BME280;6243;51.244;6.774;2024-03-08T07:56:08;115150.97;;;-141.28;41.65
12358;BME280;6243;51.244;6.774;2024-03-08T07:58:34;115150.97;;;-141.28;41.34
12358;BME280;6243;51.244;6.774;2024-03-08T08:01:01;115150.97;;;-141.28;40.58
12358;BME280;6243;51.244;6.774;2024-03-08T08:03:26;115150.97;;;-141.28;41.24
12358;BME280;6243;51.244;6.774;2024-03-08T08:05:52;115150.97;;;-141.28;40.86
12358;BME280;6243;51.244;6.774;2024-03-08T08:08:17;115150.97;;;-141.28;40.87
12358;BME280;6243;51.244;6.774;2024-03-08T08:10:43;115150.97;;;-141.28;40.58
12358;BME280;6243;51.244;6.774;2024-03-08T08:13:08;115150.97;;;-141.28;40.81
12358;BME280;6243;51.244;6.774;2024-03-08T08:15:34;115150.97;;;-141.28;40.46
12358;BME280;6243;51.244;6.774;2024-03-08T08:18:01;115150.97;;;-141.28;41.37
12358;BME280;6243;51.244;6.774;2024-03-08T08:20:26;115150.97;;;-141.28;40.81
12358;BME280;6243;51.244;6.774;2024-03-08T08:22:52;115150.97;;;-141.28;40.49
12358;BME280;6243;51.244;6.774;2024-03-08T08:25:17;115150.97;;;-141.28;40.74
12358;BME280;6243;51.244;6.774;2024-03-08T08:27:43;115150.97;;;-141.28;40.17
12358;BME280;6243;51.244;6.774;2024-03-08T08:30:09;115150.97;;;-141.28;40.74
12358;BME280;6243;51.244;6.774;2024-03-08T08:32:35;115150.97;;;-141.28;40.66
12358;BME280;6243;51.244;6.774;2024-03-08T08:35:02;115150.97;;;-141.28;39.78
12358;BME280;6243;51.244;6.774;2024-03-08T08:37:28;115150.97;;;-141.28;40.19
12358;BME280;6243;51.244;6.774;2024-03-08T08:39:54;115150.97;;;-141.28;39.31
12358;BME280;6243;51.244;6.774;2024-03-08T08:42:19;115150.97;;;-141.28;39.15
12358;BME280;6243;51.244;6.774;2024-03-08T08:44:45;115150.97;;;-141.28;38.71
12358;BME280;6243;51.244;6.774;2024-03-08T08:47:10;115150.97;;;-141.28;39.55
12358;BME280;6243;51.244;6.774;2024-03-08T08:49:36;115150.97;;;-141.28;38.82
12358;BME280;6243;51.244;6.774;2024-03-08T08:52:03;115150.97;;;-141.28;38.38
12358;BME280;6243;51.244;6.774;2024-03-08T08:54:28;115150.97;;;-141.28;38.35
12358;BME280;6243;51.244;6.774;2024-03-08T08:56:54;115150.97;;;-141.28;38.81
12358;BME280;6243;51.244;6.774;2024-03-08T08:59:20;115150.97;;;-141.28;38.13
12358;BME280;6243;51.244;6.774;2024-03-08T09:01:45;115150.97;;;-141.28;37.85
12358;BME280;6243;51.244;6.774;2024-03-08T09:04:11;115150.97;;;-141.28;37.79
12358;BME280;6243;51.244;6.774;2024-03-08T09:06:38;115150.97;;;-141.28;38.08
12358;BME280;6243;51.244;6.774;2024-03-08T09:09:04;115150.97;;;-141.28;37.54
12358;BME280;6243;51.244;6.774;2024-03-08T09:11:30;115150.97;;;-141.28;37.78
12358;BME280;6243;51.244;6.774;2024-03-08T09:13:55;115150.97;;;-141.28;37.60
12358;BME280;6243;51.244;6.774;2024-03-08T09:16:21;115150.97;;;-141.28;38.46
12358;BME280;6243;51.244;6.774;2024-03-08T09:18:46;115150.97;;;-141.28;38.47
12358;BME280;6243;51.244;6.774;2024-03-08T09:21:12;115150.97;;;-141.28;38.18
12358;BME280;6243;51.244;6.774;2024-03-08T09:23:37;115150.97;;;-141.28;37.52
12358;BME280;6243;51.244;6.774;2024-03-08T09:26:05;115150.97;;;-141.28;37.33
12358;BME280;6243;51.244;6.774;2024-03-08T09:28:30;115150.97;;;-141.28;37.16
12358;BME280;6243;51.244;6.774;2024-03-08T09:30:56;115150.97;;;-141.28;37.69
12358;BME280;6243;51.244;6.774;2024-03-08T09:33:21;115150.97;;;-141.28;37.76
12358;BME280;6243;51.244;6.774;2024-03-08T09:35:47;115150.97;;;-141.28;37.74
12358;BME280;6243;51.244;6.774;2024-03-08T09:38:12;115150.97;;;-141.28;38.03
12358;BME280;6243;51.244;6.774;2024-03-08T09:40:38;115150.97;;;-141.28;37.46
12358;BME280;6243;51.244;6.774;2024-03-08T09:43:05;115150.97;;;-141.28;37.98
12358;BME280;6243;51.244;6.774;2024-03-08T09:45:31;115150.97;;;-141.28;37.55
12358;BME280;6243;51.244;6.774;2024-03-08T09:48:01;115150.97;;;-141.28;37.06
12358;BME280;6243;51.244;6.774;2024-03-08T09:50:27;115150.97;;;-141.28;37.01
12358;BME280;6243;51.244;6.774;2024-03-08T09:52:52;115150.97;;;-141.28;37.21
12358;BME280;6243;51.244;6.774;2024-03-08T09:55:18;115150.97;;;-141.28;37.01
12358;BME280;6243;51.244;6.774;2024-03-08T09:57:44;115150.97;;;-141.28;36.51
12358;BME280;6243;51.244;6.774;2024-03-08T10:00:14;115150.97;;;-141.28;36.12
12358;BME280;6243;51.244;6.774;2024-03-08T10:02:39;115150.97;;;-141.28;36.36
12358;BME280;6243;51.244;6.774;2024-03-08T10:05:06;115150.97;;;-141.28;36.89
12358;BME280;6243;51.244;6.774;2024-03-08T10:07:32;115150.97;;;-141.28;37.33
12358;BME280;6243;51.244;6.774;2024-03-08T10:09:57;115150.97;;;-141.28;37.13
12358;BME280;6243;51.244;6.774;2024-03-08T10:12:24;115150.97;;;-141.28;36.96
12358;BME280;6243;51.244;6.774;2024-03-08T10:14:49;115150.97;;;-141.28;36.53
12358;BME280;6243;51.244;6.774;2024-03-08T10:17:16;115150.97;;;-141.28;36.66
12358;BME280;6243;51.244;6.774;2024-03-08T10:19:49;115150.97;;;-141.28;36.81
12358;BME280;6243;51.244;6.774;2024-03-08T10:22:15;115150.97;;;-141.28;36.60
12358;BME280;6243;51.244;6.774;2024-03-08T10:24:41;115150.97;;;-141.28;36.33
12358;BME280;6243;51.244;6.774;2024-03-08T10:27:06;115150.97;;;-141.28;36.36
12358;BME280;6243;51.244;6.774;2024-03-08T10:29:32;115150.97;;;-141.28;36.40
12358;BME280;6243;51.244;6.774;2024-03-08T10:31:57;115150.97;;;-141.28;36.32
12358;BME280;6243;51.244;6.774;2024-03-08T10:34:25;115150.97;;;-141.28;35.95
12358;BME280;6243;51.244;6.774;2024-03-08T10:36:51;115150.97;;;-141.28;36.39
12358;BME280;6243;51.244;6.774;2024-03-08T10:39:22;115150.97;;;-141.28;36.24
12358;BME280;6243;51.244;6.774;2024-03-08T10:41:52;115150.97;;;-141.28;36.00
12358;BME280;6243;51.244;6.774;2024-03-08T10:44:28;115150.97;;;-141.28;35.71
12358;BME280;6243;51.244;6.774;2024-03-08T10:47:00;115150.97;;;-141.28;35.54
12358;BME280;6243;51.244;6.774;2024-03-08T10:49:31;115150.97;;;-141.28;36.29
12358;BME280;6243;51.244;6.774;2024-03-08T10:51:57;115150.97;;;-141.28;35.46
12358;BME280;6243;51.244;6.774;2024-03-08T10:54:25;115150.97;;;-141.28;35.26
12358;BME280;6243;51.244;6.774;2024-03-08T10:56:51;115150.97;;;-141.28;35.51
12358;BME280;6243;51.244;6.774;2024-03-08T10:59:18;115150.97;;;-141.28;34.54
12358;BME280;6243;51.244;6.774;2024-03-08T11:01:44;115150.97;;;-141.28;35.27
12358;BME280;6243;51.244;6.774;2024-03-08T11:04:10;115150.97;;;-141.28;35.25
12358;BME280;6243;51.244;6.774;2024-03-08T11:06:43;115150.97;;;-141.28;35.13
12358;BME280;6243;51.244;6.774;2024-03-08T11:09:29;115150.97;;;-141.28;35.14
12358;BME280;6243;51.244;6.774;2024-03-08T11:12:22;115150.97;;;-141.28;34.72
12358;BME280;6243;51.244;6.774;2024-03-08T11:14:49;115150.97;;;-141.28;35.17
12358;BME280;6243;51.244;6.774;2024-03-08T11:17:15;115150.97;;;-141.28;34.95
12358;BME280;6243;51.244;6.774;2024-03-08T11:19:46;115150.97;;;-141.28;34.49
12358;BME280;6243;51.244;6.774;2024-03-08T11:22:21;115150.97;;;-141.28;34.69
12358;BME280;6243;51.244;6.774;2024-03-08T11:24:48;115150.97;;;-141.28;34.19
12358;BME280;6243;51.244;6.774;2024-03-08T11:27:14;115150.97;;;-141.28;34.59
12358;BME280;6243;51.244;6.774;2024-03-08T11:29:40;115150.97;;;-141.28;34.65
12358;BME280;6243;51.244;6.774;2024-03-08T11:32:10;115150.97;;;-141.28;34.53
12358;BME280;6243;51.244;6.774;2024-03-08T11:34:36;115150.97;;;-141.28;35.02
12358;BME280;6243;51.244;6.774;2024-03-08T11:37:04;115150.97;;;-141.28;34.19
12358;BME280;6243;51.244;6.774;2024-03-08T11:39:31;115150.97;;;-141.28;34.26
12358;BME280;6243;51.244;6.774;2024-03-08T11:41:57;115150.97;;;-141.28;34.16
12358;BME280;6243;51.244;6.774;2024-03-08T11:44:26;115150.97;;;-141.28;34.37
12358;BME280;6243;51.244;6.774;2024-03-08T11:46:52;115150.97;;;-141.28;34.88
12358;BME280;6243;51.244;6.774;2024-03-08T11:49:18;115150.97;;;-141.28;34.70
12358;BME280;6243;51.244;6.774;2024-03-08T11:51:44;115150.97;;;-141.28;34.21
12358;BME280;6243;51.244;6.774;2024-03-08T11:54:11;115150.97;;;-141.28;33.71
12358;BME280;6243;51.244;6.774;2024-03-08T11:56:39;115150.97;;;-141.28;33.93
12358;BME280;6243;51.244;6.774;2024-03-08T11:59:05;115150.97;;;-141.28;33.85
12358;BME280;6243;51.244;6.774;2024-03-08T12:01:30;115150.97;;;-141.28;33.16
12358;BME280;6243;51.244;6.774;2024-03-08T12:03:57;115150.97;;;-141.28;33.18
12358;BME280;6243;51.244;6.774;2024-03-08T12:06:23;115150.97;;;-141.28;32.61
12358;BME280;6243;51.244;6.774;2024-03-08T12:08:48;115150.97;;;-141.28;32.79
12358;BME280;6243;51.244;6.774;2024-03-08T12:11:14;115150.97;;;-141.28;32.68
12358;BME280;6243;51.244;6.774;2024-03-08T12:13:41;115150.97;;;-141.28;33.35
12358;BME280;6243;51.244;6.774;2024-03-08T12:16:07;115150.97;;;-141.28;32.96
12358;BME280;6243;51.244;6.774;2024-03-08T12:18:36;115150.97;;;-141.28;32.70
12358;BME280;6243;51.244;6.774;2024-03-08T12:21:06;115150.97;;;-141.28;32.79
12358;BME280;6243;51.244;6.774;2024-03-08T12:23:32;115150.97;;;-141.28;32.42
12358;BME280;6243;51.244;6.774;2024-03-08T12:25:57;115150.97;;;-141.28;32.87
12358;BME280;6243;51.244;6.774;2024-03-08T12:28:23;115150.97;;;-141.28;33.16
12358;BME280;6243;51.244;6.774;2024-03-08T12:30:51;115150.97;;;-141.28;33.15
12358;BME280;6243;51.244;6.774;2024-03-08T12:33:17;115150.97;;;-141.28;33.19
12358;BME280;6243;51.244;6.774;2024-03-08T12:35:50;115150.97;;;-141.28;32.20